Terminal Aerodrome Forecast
Issued by NWS Charleston, WV

Current Version | Previous Version | Graphics & Text | Print | Product List | Glossary On
Versions: 1 2 3 4 5 6 7 8 9 10 11 12 13 14 15 16 17 18 19 20 21 22 23 24 25
000
FTUS41 KRLX 280235 AAA
TAFBKW
TAF AMD
KBKW 280235Z 2803/2824 00000KT P6SM BKN100
     FM280900 00000KT 6SM BR BKN100
     FM281100 00000KT 5SM BR SCT080
     FM281300 00000KT 6SM HZ SCT080
     FM281500 00000KT P6SM SCT035
     FM281700 VRB03KT P6SM VCTS BKN035CB
     FM282300 VRB03KT P6SM SCT025=

USA.gov is the U.S. government's official web portal to all federal, state and local government web resources and services.